sensor_id;sensor_type;location;lat;lon;timestamp;P1;durP1;ratioP1;P2;durP2;ratioP2
75680;SDS011;64294;49.176;16.626;2023-05-07T00:01:41;17.67;;;12.55;;
75680;SDS011;64294;49.176;16.626;2023-05-07T00:04:06;22.00;;;13.18;;
75680;SDS011;64294;49.176;16.626;2023-05-07T00:06:32;19.77;;;13.20;;
75680;SDS011;64294;49.176;16.626;2023-05-07T00:08:58;21.25;;;13.27;;
75680;SDS011;64294;49.176;16.626;2023-05-07T00:11:24;18.15;;;13.05;;
75680;SDS011;64294;49.176;16.626;2023-05-07T00:13:50;18.50;;;12.75;;
75680;SDS011;64294;49.176;16.626;2023-05-07T00:16:16;21.48;;;13.68;;
75680;SDS011;64294;49.176;16.626;2023-05-07T00:18:41;21.85;;;14.00;;
75680;SDS011;64294;49.176;16.626;2023-05-07T00:21:07;20.98;;;13.85;;
75680;SDS011;64294;49.176;16.626;2023-05-07T00:23:32;20.48;;;13.00;;
75680;SDS011;64294;49.176;16.626;2023-05-07T00:25:57;23.75;;;14.50;;
75680;SDS011;64294;49.176;16.626;2023-05-07T00:28:23;20.48;;;13.95;;
75680;SDS011;64294;49.176;16.626;2023-05-07T00:30:48;22.88;;;14.07;;
75680;SDS011;64294;49.176;16.626;2023-05-07T00:33:14;23.13;;;14.75;;
75680;SDS011;64294;49.176;16.626;2023-05-07T00:35:39;22.35;;;14.98;;
75680;SDS011;64294;49.176;16.626;2023-05-07T00:38:04;22.67;;;15.25;;
75680;SDS011;64294;49.176;16.626;2023-05-07T00:40:30;26.90;;;17.30;;
75680;SDS011;64294;49.176;16.626;2023-05-07T00:42:55;23.38;;;15.93;;
75680;SDS011;64294;49.176;16.626;2023-05-07T00:45:23;25.08;;;16.13;;
75680;SDS011;64294;49.176;16.626;2023-05-07T00:47:57;23.67;;;16.60;;
75680;SDS011;64294;49.176;16.626;2023-05-07T00:50:24;27.20;;;17.33;;
75680;SDS011;64294;49.176;16.626;2023-05-07T00:52:51;33.05;;;19.45;;
75680;SDS011;64294;49.176;16.626;2023-05-07T00:55:17;29.48;;;18.67;;
75680;SDS011;64294;49.176;16.626;2023-05-07T00:57:42;28.42;;;18.02;;
75680;SDS011;64294;49.176;16.626;2023-05-07T01:00:09;28.70;;;19.33;;
75680;SDS011;64294;49.176;16.626;2023-05-07T01:02:37;32.17;;;19.05;;
75680;SDS011;64294;49.176;16.626;2023-05-07T01:05:03;29.90;;;20.38;;
75680;SDS011;64294;49.176;16.626;2023-05-07T01:07:31;28.88;;;19.90;;
75680;SDS011;64294;49.176;16.626;2023-05-07T01:09:57;30.48;;;20.30;;
75680;SDS011;64294;49.176;16.626;2023-05-07T01:12:23;30.63;;;21.33;;
75680;SDS011;64294;49.176;16.626;2023-05-07T01:14:50;32.92;;;21.20;;
75680;SDS011;64294;49.176;16.626;2023-05-07T01:17:15;34.03;;;21.38;;
75680;SDS011;64294;49.176;16.626;2023-05-07T01:19:42;29.08;;;20.63;;
75680;SDS011;64294;49.176;16.626;2023-05-07T01:22:08;31.38;;;21.25;;
75680;SDS011;64294;49.176;16.626;2023-05-07T01:24:36;31.67;;;20.00;;
75680;SDS011;64294;49.176;16.626;2023-05-07T01:27:02;29.02;;;19.98;;
75680;SDS011;64294;49.176;16.626;2023-05-07T01:29:28;30.08;;;20.63;;
75680;SDS011;64294;49.176;16.626;2023-05-07T01:31:54;30.13;;;20.85;;
75680;SDS011;64294;49.176;16.626;2023-05-07T01:34:22;32.42;;;20.33;;
75680;SDS011;64294;49.176;16.626;2023-05-07T01:36:51;31.05;;;20.45;;
75680;SDS011;64294;49.176;16.626;2023-05-07T01:39:20;29.52;;;19.83;;
75680;SDS011;64294;49.176;16.626;2023-05-07T01:41:46;29.45;;;19.85;;
75680;SDS011;64294;49.176;16.626;2023-05-07T01:44:12;33.88;;;19.50;;
75680;SDS011;64294;49.176;16.626;2023-05-07T01:46:38;31.33;;;19.33;;
75680;SDS011;64294;49.176;16.626;2023-05-07T01:49:06;28.23;;;18.42;;
75680;SDS011;64294;49.176;16.626;2023-05-07T01:51:32;30.38;;;19.25;;
75680;SDS011;64294;49.176;16.626;2023-05-07T01:53:58;25.83;;;17.58;;
75680;SDS011;64294;49.176;16.626;2023-05-07T01:56:24;27.02;;;18.13;;
75680;SDS011;64294;49.176;16.626;2023-05-07T01:58:50;26.58;;;17.92;;
75680;SDS011;64294;49.176;16.626;2023-05-07T02:01:16;29.05;;;18.88;;
75680;SDS011;64294;49.176;16.626;2023-05-07T02:03:42;27.35;;;18.48;;
75680;SDS011;64294;49.176;16.626;2023-05-07T02:06:07;28.08;;;18.38;;
75680;SDS011;64294;49.176;16.626;2023-05-07T02:08:32;27.65;;;17.80;;
75680;SDS011;64294;49.176;16.626;2023-05-07T02:10:58;28.15;;;18.90;;
75680;SDS011;64294;49.176;16.626;2023-05-07T02:13:23;29.00;;;20.02;;
75680;SDS011;64294;49.176;16.626;2023-05-07T02:15:49;29.13;;;19.08;;
75680;SDS011;64294;49.176;16.626;2023-05-07T02:18:16;31.60;;;18.92;;
75680;SDS011;64294;49.176;16.626;2023-05-07T02:20:42;31.05;;;19.17;;
75680;SDS011;64294;49.176;16.626;2023-05-07T02:23:07;30.80;;;20.15;;
75680;SDS011;64294;49.176;16.626;2023-05-07T02:25:33;33.22;;;19.67;;
75680;SDS011;64294;49.176;16.626;2023-05-07T02:27:58;31.05;;;19.98;;
75680;SDS011;64294;49.176;16.626;2023-05-07T02:30:24;32.72;;;20.52;;
75680;SDS011;64294;49.176;16.626;2023-05-07T02:32:50;33.95;;;20.08;;
75680;SDS011;64294;49.176;16.626;2023-05-07T02:35:15;34.20;;;19.85;;
75680;SDS011;64294;49.176;16.626;2023-05-07T02:37:41;33.78;;;20.40;;
75680;SDS011;64294;49.176;16.626;2023-05-07T02:40:06;33.42;;;21.00;;
75680;SDS011;64294;49.176;16.626;2023-05-07T02:42:32;32.58;;;21.20;;
75680;SDS011;64294;49.176;16.626;2023-05-07T02:44:58;34.60;;;21.88;;
75680;SDS011;64294;49.176;16.626;2023-05-07T02:47:24;35.85;;;22.13;;
75680;SDS011;64294;49.176;16.626;2023-05-07T02:49:52;36.03;;;21.98;;
75680;SDS011;64294;49.176;16.626;2023-05-07T02:52:18;38.20;;;22.13;;
75680;SDS011;64294;49.176;16.626;2023-05-07T02:54:43;36.92;;;22.17;;
75680;SDS011;64294;49.176;16.626;2023-05-07T02:57:09;34.70;;;22.33;;
75680;SDS011;64294;49.176;16.626;2023-05-07T02:59:34;36.67;;;22.63;;
75680;SDS011;64294;49.176;16.626;2023-05-07T03:01:59;36.72;;;21.92;;
75680;SDS011;64294;49.176;16.626;2023-05-07T03:04:25;36.67;;;23.00;;
75680;SDS011;64294;49.176;16.626;2023-05-07T03:06:50;44.92;;;26.42;;
75680;SDS011;64294;49.176;16.626;2023-05-07T03:09:16;39.00;;;23.08;;
75680;SDS011;64294;49.176;16.626;2023-05-07T03:11:41;39.33;;;22.55;;
75680;SDS011;64294;49.176;16.626;2023-05-07T03:14:07;35.50;;;22.45;;
75680;SDS011;64294;49.176;16.626;2023-05-07T03:16:32;35.85;;;22.80;;
75680;SDS011;64294;49.176;16.626;2023-05-07T03:18:58;37.65;;;22.33;;
75680;SDS011;64294;49.176;16.626;2023-05-07T03:21:23;37.95;;;21.95;;
75680;SDS011;64294;49.176;16.626;2023-05-07T03:23:48;33.38;;;20.77;;
75680;SDS011;64294;49.176;16.626;2023-05-07T03:26:14;38.17;;;23.23;;
75680;SDS011;64294;49.176;16.626;2023-05-07T03:28:39;34.45;;;20.88;;
75680;SDS011;64294;49.176;16.626;2023-05-07T03:31:05;34.42;;;21.15;;
75680;SDS011;64294;49.176;16.626;2023-05-07T03:33:32;31.95;;;20.10;;
75680;SDS011;64294;49.176;16.626;2023-05-07T03:35:59;33.45;;;20.80;;
75680;SDS011;64294;49.176;16.626;2023-05-07T03:38:24;31.95;;;20.15;;
75680;SDS011;64294;49.176;16.626;2023-05-07T03:40:49;32.22;;;19.88;;
75680;SDS011;64294;49.176;16.626;2023-05-07T03:43:15;29.00;;;17.48;;
75680;SDS011;64294;49.176;16.626;2023-05-07T03:45:40;28.88;;;17.15;;
75680;SDS011;64294;49.176;16.626;2023-05-07T03:48:05;25.60;;;16.38;;
75680;SDS011;64294;49.176;16.626;2023-05-07T03:50:31;25.50;;;15.63;;
75680;SDS011;64294;49.176;16.626;2023-05-07T03:52:56;25.60;;;15.32;;
75680;SDS011;64294;49.176;16.626;2023-05-07T03:55:22;23.75;;;15.25;;
75680;SDS011;64294;49.176;16.626;2023-05-07T03:57:47;24.70;;;15.55;;
75680;SDS011;64294;49.176;16.626;2023-05-07T04:00:13;22.70;;;14.23;;
75680;SDS011;64294;49.176;16.626;2023-05-07T04:02:39;21.77;;;14.27;;
75680;SDS011;64294;49.176;16.626;2023-05-07T04:05:04;23.27;;;14.50;;
75680;SDS011;64294;49.176;16.626;2023-05-07T04:07:30;21.00;;;13.02;;
75680;SDS011;64294;49.176;16.626;2023-05-07T04:09:55;22.95;;;14.57;;
75680;SDS011;64294;49.176;16.626;2023-05-07T04:12:20;23.30;;;14.25;;
75680;SDS011;64294;49.176;16.626;2023-05-07T04:14:46;23.73;;;13.75;;
75680;SDS011;64294;49.176;16.626;2023-05-07T04:17:11;23.05;;;14.55;;
75680;SDS011;64294;49.176;16.626;2023-05-07T04:19:37;21.25;;;13.77;;
75680;SDS011;64294;49.176;16.626;2023-05-07T04:22:02;21.60;;;13.82;;
75680;SDS011;64294;49.176;16.626;2023-05-07T04:24:28;20.40;;;13.77;;
75680;SDS011;64294;49.176;16.626;2023-05-07T04:26:56;22.70;;;14.15;;
75680;SDS011;64294;49.176;16.626;2023-05-07T04:29:23;19.10;;;13.45;;
75680;SDS011;64294;49.176;16.626;2023-05-07T04:31:49;24.00;;;13.90;;
75680;SDS011;64294;49.176;16.626;2023-05-07T04:34:14;21.67;;;14.45;;
75680;SDS011;64294;49.176;16.626;2023-05-07T04:36:42;25.02;;;14.63;;
75680;SDS011;64294;49.176;16.626;2023-05-07T04:39:07;23.83;;;14.32;;
75680;SDS011;64294;49.176;16.626;2023-05-07T04:41:33;22.35;;;14.18;;
75680;SDS011;64294;49.176;16.626;2023-05-07T04:43:58;20.23;;;13.65;;
75680;SDS011;64294;49.176;16.626;2023-05-07T04:46:24;23.27;;;14.75;;
75680;SDS011;64294;49.176;16.626;2023-05-07T04:48:50;20.70;;;13.77;;
75680;SDS011;64294;49.176;16.626;2023-05-07T04:51:15;21.20;;;14.13;;
75680;SDS011;64294;49.176;16.626;2023-05-07T04:53:40;20.73;;;14.13;;
75680;SDS011;64294;49.176;16.626;2023-05-07T04:56:08;20.52;;;13.60;;
75680;SDS011;64294;49.176;16.626;2023-05-07T04:58:33;21.00;;;13.77;;
75680;SDS011;64294;49.176;16.626;2023-05-07T05:00:59;20.65;;;13.32;;
75680;SDS011;64294;49.176;16.626;2023-05-07T05:03:25;19.42;;;13.13;;
75680;SDS011;64294;49.176;16.626;2023-05-07T05:05:50;18.77;;;13.57;;
75680;SDS011;64294;49.176;16.626;2023-05-07T05:08:17;19.75;;;13.95;;
75680;SDS011;64294;49.176;16.626;2023-05-07T05:10:42;19.88;;;14.40;;
75680;SDS011;64294;49.176;16.626;2023-05-07T05:13:08;20.92;;;13.73;;
75680;SDS011;64294;49.176;16.626;2023-05-07T05:15:34;21.52;;;14.07;;
75680;SDS011;64294;49.176;16.626;2023-05-07T05:17:59;21.20;;;13.77;;
75680;SDS011;64294;49.176;16.626;2023-05-07T05:20:25;19.58;;;12.90;;
75680;SDS011;64294;49.176;16.626;2023-05-07T05:22:50;19.02;;;12.80;;
75680;SDS011;64294;49.176;16.626;2023-05-07T05:25:16;18.20;;;12.68;;
75680;SDS011;64294;49.176;16.626;2023-05-07T05:27:44;20.35;;;12.75;;
75680;SDS011;64294;49.176;16.626;2023-05-07T05:30:10;16.90;;;12.30;;
75680;SDS011;64294;49.176;16.626;2023-05-07T05:32:36;16.85;;;12.23;;
75680;SDS011;64294;49.176;16.626;2023-05-07T05:35:01;19.45;;;12.75;;
75680;SDS011;64294;49.176;16.626;2023-05-07T05:37:27;19.85;;;13.55;;
75680;SDS011;64294;49.176;16.626;2023-05-07T05:39:52;17.58;;;12.30;;
75680;SDS011;64294;49.176;16.626;2023-05-07T05:42:19;17.25;;;12.10;;
75680;SDS011;64294;49.176;16.626;2023-05-07T05:44:45;17.02;;;12.00;;
75680;SDS011;64294;49.176;16.626;2023-05-07T05:47:10;17.77;;;12.10;;
75680;SDS011;64294;49.176;16.626;2023-05-07T05:49:37;17.50;;;11.30;;
75680;SDS011;64294;49.176;16.626;2023-05-07T05:52:02;17.38;;;11.82;;
75680;SDS011;64294;49.176;16.626;2023-05-07T05:54:28;15.63;;;11.27;;
75680;SDS011;64294;49.176;16.626;2023-05-07T05:56:53;15.98;;;11.25;;
75680;SDS011;64294;49.176;16.626;2023-05-07T05:59:19;16.00;;;11.48;;
75680;SDS011;64294;49.176;16.626;2023-05-07T06:01:44;17.58;;;11.98;;
75680;SDS011;64294;49.176;16.626;2023-05-07T06:04:09;18.55;;;11.57;;
75680;SDS011;64294;49.176;16.626;2023-05-07T06:06:35;15.55;;;10.43;;
75680;SDS011;64294;49.176;16.626;2023-05-07T06:09:00;14.27;;;10.80;;
75680;SDS011;64294;49.176;16.626;2023-05-07T06:11:26;15.35;;;10.60;;
75680;SDS011;64294;49.176;16.626;2023-05-07T06:13:51;15.90;;;10.93;;
75680;SDS011;64294;49.176;16.626;2023-05-07T06:16:17;17.30;;;11.43;;
75680;SDS011;64294;49.176;16.626;2023-05-07T06:18:42;14.20;;;10.65;;
75680;SDS011;64294;49.176;16.626;2023-05-07T06:21:07;13.30;;;10.18;;
75680;SDS011;64294;49.176;16.626;2023-05-07T06:23:33;16.10;;;10.77;;
75680;SDS011;64294;49.176;16.626;2023-05-07T06:25:58;15.43;;;11.20;;
75680;SDS011;64294;49.176;16.626;2023-05-07T06:28:24;14.60;;;11.05;;
75680;SDS011;64294;49.176;16.626;2023-05-07T06:30:49;14.68;;;10.63;;
75680;SDS011;64294;49.176;16.626;2023-05-07T06:33:15;15.85;;;10.55;;
75680;SDS011;64294;49.176;16.626;2023-05-07T06:35:40;13.68;;;10.55;;
75680;SDS011;64294;49.176;16.626;2023-05-07T06:38:06;15.25;;;10.27;;
75680;SDS011;64294;49.176;16.626;2023-05-07T06:40:31;12.35;;;9.85;;
75680;SDS011;64294;49.176;16.626;2023-05-07T06:42:57;13.45;;;10.63;;
75680;SDS011;64294;49.176;16.626;2023-05-07T06:45:22;14.98;;;11.05;;
75680;SDS011;64294;49.176;16.626;2023-05-07T06:47:48;16.17;;;10.95;;
75680;SDS011;64294;49.176;16.626;2023-05-07T06:50:14;15.82;;;10.55;;
75680;SDS011;64294;49.176;16.626;2023-05-07T06:52:41;14.23;;;11.00;;
75680;SDS011;64294;49.176;16.626;2023-05-07T06:55:07;14.52;;;10.77;;
75680;SDS011;64294;49.176;16.626;2023-05-07T06:57:32;16.95;;;11.38;;
75680;SDS011;64294;49.176;16.626;2023-05-07T06:59:58;14.93;;;10.50;;
75680;SDS011;64294;49.176;16.626;2023-05-07T07:02:23;15.07;;;10.52;;
75680;SDS011;64294;49.176;16.626;2023-05-07T07:04:49;14.65;;;10.55;;
75680;SDS011;64294;49.176;16.626;2023-05-07T07:07:14;17.00;;;10.95;;
75680;SDS011;64294;49.176;16.626;2023-05-07T07:09:40;14.38;;;10.48;;
75680;SDS011;64294;49.176;16.626;2023-05-07T07:12:05;15.63;;;11.43;;
75680;SDS011;64294;49.176;16.626;2023-05-07T07:14:30;16.05;;;11.18;;
75680;SDS011;64294;49.176;16.626;2023-05-07T07:16:56;15.10;;;10.45;;
75680;SDS011;64294;49.176;16.626;2023-05-07T07:19:21;15.70;;;10.27;;
75680;SDS011;64294;49.176;16.626;2023-05-07T07:21:47;13.70;;;9.57;;
75680;SDS011;64294;49.176;16.626;2023-05-07T07:24:13;16.98;;;10.30;;
75680;SDS011;64294;49.176;16.626;2023-05-07T07:26:46;15.68;;;9.30;;
75680;SDS011;64294;49.176;16.626;2023-05-07T07:29:11;14.82;;;10.20;;
75680;SDS011;64294;49.176;16.626;2023-05-07T07:31:37;13.70;;;9.20;;
75680;SDS011;64294;49.176;16.626;2023-05-07T07:34:02;12.65;;;9.40;;
75680;SDS011;64294;49.176;16.626;2023-05-07T07:36:28;13.98;;;9.10;;
75680;SDS011;64294;49.176;16.626;2023-05-07T07:38:53;12.32;;;9.30;;
75680;SDS011;64294;49.176;16.626;2023-05-07T07:41:19;11.65;;;8.88;;
75680;SDS011;64294;49.176;16.626;2023-05-07T07:43:44;12.40;;;8.82;;
75680;SDS011;64294;49.176;16.626;2023-05-07T07:46:11;11.30;;;8.60;;
75680;SDS011;64294;49.176;16.626;2023-05-07T07:48:37;13.65;;;10.32;;
75680;SDS011;64294;49.176;16.626;2023-05-07T07:51:02;17.10;;;11.15;;
75680;SDS011;64294;49.176;16.626;2023-05-07T07:53:28;15.65;;;10.50;;
75680;SDS011;64294;49.176;16.626;2023-05-07T07:55:53;10.40;;;7.65;;
75680;SDS011;64294;49.176;16.626;2023-05-07T07:58:19;9.52;;;6.43;;
75680;SDS011;64294;49.176;16.626;2023-05-07T08:00:44;7.65;;;5.28;;
75680;SDS011;64294;49.176;16.626;2023-05-07T08:03:10;9.48;;;6.50;;
75680;SDS011;64294;49.176;16.626;2023-05-07T08:05:35;9.98;;;6.53;;
75680;SDS011;64294;49.176;16.626;2023-05-07T08:08:01;5.93;;;4.50;;
75680;SDS011;64294;49.176;16.626;2023-05-07T08:10:26;6.85;;;4.43;;
75680;SDS011;64294;49.176;16.626;2023-05-07T08:12:52;6.10;;;4.40;;
75680;SDS011;64294;49.176;16.626;2023-05-07T08:15:17;6.72;;;4.22;;
75680;SDS011;64294;49.176;16.626;2023-05-07T08:17:43;7.18;;;4.53;;
75680;SDS011;64294;49.176;16.626;2023-05-07T08:20:08;6.18;;;3.85;;
75680;SDS011;64294;49.176;16.626;2023-05-07T08:22:35;5.78;;;4.35;;
75680;SDS011;64294;49.176;16.626;2023-05-07T08:25:01;5.35;;;3.97;;
75680;SDS011;64294;49.176;16.626;2023-05-07T08:27:26;9.20;;;4.32;;
75680;SDS011;64294;49.176;16.626;2023-05-07T08:29:52;8.45;;;4.30;;
75680;SDS011;64294;49.176;16.626;2023-05-07T08:32:17;6.55;;;3.95;;
75680;SDS011;64294;49.176;16.626;2023-05-07T08:34:42;5.47;;;3.80;;
75680;SDS011;64294;49.176;16.626;2023-05-07T08:37:08;6.45;;;4.07;;
75680;SDS011;64294;49.176;16.626;2023-05-07T08:39:33;5.72;;;4.10;;
75680;SDS011;64294;49.176;16.626;2023-05-07T08:42:00;6.22;;;3.90;;
75680;SDS011;64294;49.176;16.626;2023-05-07T08:44:27;7.20;;;4.18;;
75680;SDS011;64294;49.176;16.626;2023-05-07T08:46:57;10.27;;;4.25;;
75680;SDS011;64294;49.176;16.626;2023-05-07T08:49:24;4.90;;;4.00;;
75680;SDS011;64294;49.176;16.626;2023-05-07T08:51:50;5.90;;;4.05;;
75680;SDS011;64294;49.176;16.626;2023-05-07T08:54:16;6.32;;;3.78;;
75680;SDS011;64294;49.176;16.626;2023-05-07T08:56:42;6.53;;;3.70;;
75680;SDS011;64294;49.176;16.626;2023-05-07T08:59:08;6.82;;;3.55;;
75680;SDS011;64294;49.176;16.626;2023-05-07T09:01:33;5.53;;;3.08;;
75680;SDS011;64294;49.176;16.626;2023-05-07T09:04:00;4.60;;;3.17;;
75680;SDS011;64294;49.176;16.626;2023-05-07T09:06:26;6.63;;;3.50;;
75680;SDS011;64294;49.176;16.626;2023-05-07T09:08:54;6.15;;;3.65;;
75680;SDS011;64294;49.176;16.626;2023-05-07T09:11:21;5.50;;;3.17;;
75680;SDS011;64294;49.176;16.626;2023-05-07T09:13:47;3.75;;;3.00;;
75680;SDS011;64294;49.176;16.626;2023-05-07T09:16:13;4.20;;;2.90;;
75680;SDS011;64294;49.176;16.626;2023-05-07T09:18:40;7.28;;;3.47;;
75680;SDS011;64294;49.176;16.626;2023-05-07T09:21:14;5.47;;;3.42;;
75680;SDS011;64294;49.176;16.626;2023-05-07T09:23:41;11.30;;;4.13;;
75680;SDS011;64294;49.176;16.626;2023-05-07T09:26:06;11.77;;;5.30;;
75680;SDS011;64294;49.176;16.626;2023-05-07T09:28:37;5.85;;;2.92;;
75680;SDS011;64294;49.176;16.626;2023-05-07T09:31:03;4.53;;;2.95;;
75680;SDS011;64294;49.176;16.626;2023-05-07T09:33:29;4.10;;;2.90;;
75680;SDS011;64294;49.176;16.626;2023-05-07T09:35:55;7.50;;;5.47;;
75680;SDS011;64294;49.176;16.626;2023-05-07T09:38:21;6.97;;;4.78;;
75680;SDS011;64294;49.176;16.626;2023-05-07T09:40:47;11.27;;;6.55;;
75680;SDS011;64294;49.176;16.626;2023-05-07T09:43:13;5.38;;;3.00;;
75680;SDS011;64294;49.176;16.626;2023-05-07T09:45:39;7.32;;;3.28;;
75680;SDS011;64294;49.176;16.626;2023-05-07T09:48:05;14.50;;;5.45;;
75680;SDS011;64294;49.176;16.626;2023-05-07T09:50:35;6.70;;;3.22;;
75680;SDS011;64294;49.176;16.626;2023-05-07T09:55:31;7.97;;;5.82;;
75680;SDS011;64294;49.176;16.626;2023-05-07T09:57:57;7.05;;;5.03;;
75680;SDS011;64294;49.176;16.626;2023-05-07T10:00:24;8.10;;;5.07;;
75680;SDS011;64294;49.176;16.626;2023-05-07T10:02:51;9.10;;;4.88;;
75680;SDS011;64294;49.176;16.626;2023-05-07T10:05:18;7.13;;;4.90;;
75680;SDS011;64294;49.176;16.626;2023-05-07T10:07:47;9.35;;;5.05;;
75680;SDS011;64294;49.176;16.626;2023-05-07T10:10:14;6.15;;;4.50;;
75680;SDS011;64294;49.176;16.626;2023-05-07T10:12:43;6.40;;;4.20;;
75680;SDS011;64294;49.176;16.626;2023-05-07T10:15:11;6.45;;;3.50;;
75680;SDS011;64294;49.176;16.626;2023-05-07T10:17:38;5.10;;;2.50;;
75680;SDS011;64294;49.176;16.626;2023-05-07T10:20:05;7.28;;;5.10;;
75680;SDS011;64294;49.176;16.626;2023-05-07T10:22:52;7.10;;;5.13;;
75680;SDS011;64294;49.176;16.626;2023-05-07T10:25:18;5.38;;;4.13;;
75680;SDS011;64294;49.176;16.626;2023-05-07T10:27:49;6.20;;;4.40;;
75680;SDS011;64294;49.176;16.626;2023-05-07T10:32:51;6.18;;;4.18;;
75680;SDS011;64294;49.176;16.626;2023-05-07T10:35:20;6.05;;;3.58;;
75680;SDS011;64294;49.176;16.626;2023-05-07T10:37:49;8.80;;;4.90;;
75680;SDS011;64294;49.176;16.626;2023-05-07T10:40:15;7.15;;;5.00;;
75680;SDS011;64294;49.176;16.626;2023-05-07T10:42:58;7.20;;;4.78;;
75680;SDS011;64294;49.176;16.626;2023-05-07T10:45:25;8.48;;;5.00;;
75680;SDS011;64294;49.176;16.626;2023-05-07T10:53:44;7.22;;;4.60;;
75680;SDS011;64294;49.176;16.626;2023-05-07T10:58:44;6.55;;;4.50;;
75680;SDS011;64294;49.176;16.626;2023-05-07T11:01:09;8.15;;;4.57;;
75680;SDS011;64294;49.176;16.626;2023-05-07T11:03:37;5.93;;;4.43;;
75680;SDS011;64294;49.176;16.626;2023-05-07T11:06:39;11.23;;;8.10;;
75680;SDS011;64294;49.176;16.626;2023-05-07T11:09:05;5.78;;;4.75;;
75680;SDS011;64294;49.176;16.626;2023-05-07T11:17:07;11.02;;;8.35;;
75680;SDS011;64294;49.176;16.626;2023-05-07T11:19:47;9.43;;;6.75;;
75680;SDS011;64294;49.176;16.626;2023-05-07T11:25:17;6.40;;;4.70;;
75680;SDS011;64294;49.176;16.626;2023-05-07T11:27:44;4.63;;;3.70;;
75680;SDS011;64294;49.176;16.626;2023-05-07T11:30:10;6.78;;;4.22;;
75680;SDS011;64294;49.176;16.626;2023-05-07T11:32:36;6.22;;;5.32;;
75680;SDS011;64294;49.176;16.626;2023-05-07T11:35:02;12.15;;;10.23;;
75680;SDS011;64294;49.176;16.626;2023-05-07T11:37:27;10.07;;;6.85;;
75680;SDS011;64294;49.176;16.626;2023-05-07T11:40:04;5.63;;;4.30;;
75680;SDS011;64294;49.176;16.626;2023-05-07T11:42:35;5.63;;;4.03;;
75680;SDS011;64294;49.176;16.626;2023-05-07T11:45:05;5.75;;;4.40;;
75680;SDS011;64294;49.176;16.626;2023-05-07T11:47:31;8.30;;;4.75;;
75680;SDS011;64294;49.176;16.626;2023-05-07T11:49:57;6.00;;;3.78;;
75680;SDS011;64294;49.176;16.626;2023-05-07T11:52:28;7.15;;;4.10;;
75680;SDS011;64294;49.176;16.626;2023-05-07T11:54:54;5.80;;;4.10;;
75680;SDS011;64294;49.176;16.626;2023-05-07T11:57:21;8.40;;;5.13;;
75680;SDS011;64294;49.176;16.626;2023-05-07T11:59:47;6.38;;;4.57;;
75680;SDS011;64294;49.176;16.626;2023-05-07T12:02:17;5.32;;;3.35;;
75680;SDS011;64294;49.176;16.626;2023-05-07T12:04:42;7.43;;;5.28;;
75680;SDS011;64294;49.176;16.626;2023-05-07T12:07:12;5.38;;;3.72;;
75680;SDS011;64294;49.176;16.626;2023-05-07T12:09:38;6.80;;;3.65;;
75680;SDS011;64294;49.176;16.626;2023-05-07T12:12:04;4.97;;;3.08;;
75680;SDS011;64294;49.176;16.626;2023-05-07T12:14:30;5.82;;;3.35;;
75680;SDS011;64294;49.176;16.626;2023-05-07T12:16:56;6.97;;;3.40;;
75680;SDS011;64294;49.176;16.626;2023-05-07T12:19:22;4.53;;;3.13;;
75680;SDS011;64294;49.176;16.626;2023-05-07T12:21:48;5.18;;;3.53;;
75680;SDS011;64294;49.176;16.626;2023-05-07T12:24:16;5.95;;;3.15;;
75680;SDS011;64294;49.176;16.626;2023-05-07T12:26:43;6.10;;;3.92;;
75680;SDS011;64294;49.176;16.626;2023-05-07T12:29:08;6.53;;;3.95;;
75680;SDS011;64294;49.176;16.626;2023-05-07T12:31:34;5.82;;;4.00;;
75680;SDS011;64294;49.176;16.626;2023-05-07T12:33:59;6.47;;;4.15;;
75680;SDS011;64294;49.176;16.626;2023-05-07T12:36:25;6.70;;;4.30;;
75680;SDS011;64294;49.176;16.626;2023-05-07T12:38:50;6.40;;;4.38;;
75680;SDS011;64294;49.176;16.626;2023-05-07T12:41:16;12.57;;;8.13;;
75680;SDS011;64294;49.176;16.626;2023-05-07T12:43:44;9.70;;;7.07;;
75680;SDS011;64294;49.176;16.626;2023-05-07T12:46:11;9.45;;;6.35;;
75680;SDS011;64294;49.176;16.626;2023-05-07T12:48:43;8.93;;;5.60;;
75680;SDS011;64294;49.176;16.626;2023-05-07T12:51:10;8.73;;;6.07;;
75680;SDS011;64294;49.176;16.626;2023-05-07T12:53:41;8.07;;;5.50;;
75680;SDS011;64294;49.176;16.626;2023-05-07T12:56:08;8.88;;;5.65;;
75680;SDS011;64294;49.176;16.626;2023-05-07T12:58:34;15.88;;;10.32;;
75680;SDS011;64294;49.176;16.626;2023-05-07T13:01:05;13.75;;;9.93;;
75680;SDS011;64294;49.176;16.626;2023-05-07T13:03:32;13.13;;;9.25;;
75680;SDS011;64294;49.176;16.626;2023-05-07T13:05:59;12.40;;;8.35;;
75680;SDS011;64294;49.176;16.626;2023-05-07T13:08:27;8.20;;;5.50;;
75680;SDS011;64294;49.176;16.626;2023-05-07T13:10:53;9.57;;;6.13;;
75680;SDS011;64294;49.176;16.626;2023-05-07T13:13:19;9.18;;;6.88;;
75680;SDS011;64294;49.176;16.626;2023-05-07T13:15:45;10.82;;;6.88;;
75680;SDS011;64294;49.176;16.626;2023-05-07T13:18:11;18.38;;;9.40;;
75680;SDS011;64294;49.176;16.626;2023-05-07T13:20:36;12.48;;;8.50;;
75680;SDS011;64294;49.176;16.626;2023-05-07T13:23:02;10.60;;;7.85;;
75680;SDS011;64294;49.176;16.626;2023-05-07T13:25:29;12.23;;;8.30;;
75680;SDS011;64294;49.176;16.626;2023-05-07T13:27:56;10.88;;;7.60;;
75680;SDS011;64294;49.176;16.626;2023-05-07T13:30:22;11.48;;;8.00;;
75680;SDS011;64294;49.176;16.626;2023-05-07T13:32:48;14.80;;;10.23;;
75680;SDS011;64294;49.176;16.626;2023-05-07T13:35:14;10.20;;;7.47;;
75680;SDS011;64294;49.176;16.626;2023-05-07T13:37:39;11.00;;;7.13;;
75680;SDS011;64294;49.176;16.626;2023-05-07T13:40:05;13.90;;;9.80;;
75680;SDS011;64294;49.176;16.626;2023-05-07T13:42:31;12.48;;;8.90;;
75680;SDS011;64294;49.176;16.626;2023-05-07T13:44:56;10.82;;;7.28;;
75680;SDS011;64294;49.176;16.626;2023-05-07T13:47:22;8.55;;;6.30;;
75680;SDS011;64294;49.176;16.626;2023-05-07T13:49:47;9.38;;;6.82;;
75680;SDS011;64294;49.176;16.626;2023-05-07T13:52:15;10.90;;;7.65;;
75680;SDS011;64294;49.176;16.626;2023-05-07T13:54:41;9.93;;;6.68;;
75680;SDS011;64294;49.176;16.626;2023-05-07T13:57:06;8.30;;;6.70;;
75680;SDS011;64294;49.176;16.626;2023-05-07T13:59:31;10.43;;;6.25;;
75680;SDS011;64294;49.176;16.626;2023-05-07T14:01:57;10.48;;;5.65;;
75680;SDS011;64294;49.176;16.626;2023-05-07T14:04:22;8.75;;;5.60;;
75680;SDS011;64294;49.176;16.626;2023-05-07T14:06:47;8.55;;;6.03;;
75680;SDS011;64294;49.176;16.626;2023-05-07T14:09:13;7.90;;;5.65;;
75680;SDS011;64294;49.176;16.626;2023-05-07T14:11:38;8.07;;;5.30;;
75680;SDS011;64294;49.176;16.626;2023-05-07T14:14:04;7.72;;;5.20;;
75680;SDS011;64294;49.176;16.626;2023-05-07T14:16:30;9.77;;;5.50;;
75680;SDS011;64294;49.176;16.626;2023-05-07T14:18:55;7.97;;;4.85;;
75680;SDS011;64294;49.176;16.626;2023-05-07T14:21:21;8.20;;;4.90;;
75680;SDS011;64294;49.176;16.626;2023-05-07T14:23:46;6.45;;;5.05;;
75680;SDS011;64294;49.176;16.626;2023-05-07T14:26:12;7.43;;;4.90;;
75680;SDS011;64294;49.176;16.626;2023-05-07T14:28:37;8.32;;;4.50;;
75680;SDS011;64294;49.176;16.626;2023-05-07T14:31:04;7.45;;;4.35;;
75680;SDS011;64294;49.176;16.626;2023-05-07T14:33:31;6.78;;;4.20;;
75680;SDS011;64294;49.176;16.626;2023-05-07T14:35:56;7.10;;;4.47;;